Terminal Aerodrome Forecast
Issued by NWS Cleveland, OH

Home | Current Version | Previous Version | Text Only | Print | Product List | Glossary On
Versions: 1 2 3 4 5 6 7 8 9 10 11 12 13 14 15 16
324
FTUS41 KCLE 291728
TAFYNG
TAF
KYNG 291728Z 2918/3018 24008KT P6SM OVC120
      TEMPO 2919/2920 -SHRA BKN035
     FM292200 20005KT P6SM SCT035
     FM300000 VRB03KT P6SM SKC
     FM301500 28008KT P6SM SKC=

USA.gov is the U.S. government's official web portal to all federal, state and local government web resources and services.